createdAt,value
2022-12-31T00:03:50.387Z,0
2022-12-31T00:08:50.169Z,0
2022-12-31T00:13:49.868Z,0
2022-12-31T00:18:50.309Z,0
2022-12-31T00:23:48.724Z,0
2022-12-31T00:28:48.545Z,0
2022-12-31T00:33:47.180Z,0
2022-12-31T00:38:47.899Z,0
2022-12-31T00:43:44.137Z,0
2022-12-31T00:48:44.173Z,0
2022-12-31T00:53:43.519Z,0
2022-12-31T00:58:33.325Z,0
2022-12-31T01:03:31.484Z,0
2022-12-31T01:08:30.549Z,0
2022-12-31T01:13:31.067Z,0
2022-12-31T01:18:30.422Z,0
2022-12-31T01:23:29.810Z,0
2022-12-31T01:28:29.443Z,0
2022-12-31T01:33:29.938Z,0
2022-12-31T01:38:29.049Z,0
2022-12-31T01:43:30.234Z,0
2022-12-31T01:48:26.476Z,0
2022-12-31T01:53:26.399Z,0
2022-12-31T01:58:26.177Z,0
2022-12-31T01:59:47.961Z,0
2022-12-31T02:04:48.149Z,0
2022-12-31T02:09:50.021Z,0
2022-12-31T02:14:48.231Z,0
2022-12-31T02:19:48.442Z,0
2022-12-31T02:24:48.378Z,0
2022-12-31T02:29:47.669Z,0
2022-12-31T02:34:48.018Z,0
2022-12-31T02:39:44.278Z,0
2022-12-31T02:44:45.150Z,0
2022-12-31T02:49:43.970Z,0
2022-12-31T02:54:43.947Z,0
2022-12-31T02:58:57.292Z,0
2022-12-31T03:03:57.456Z,0
2022-12-31T03:08:57.419Z,0
2022-12-31T03:13:57.048Z,0
2022-12-31T03:18:56.234Z,0
2022-12-31T03:23:56.469Z,0
2022-12-31T03:28:56.224Z,0
2022-12-31T03:33:57.178Z,0
2022-12-31T03:38:55.816Z,0
2022-12-31T03:43:53.997Z,0
2022-12-31T03:48:53.629Z,0
2022-12-31T03:53:53.212Z,0
2022-12-31T03:58:52.666Z,0
2022-12-31T04:03:52.193Z,0
2022-12-31T04:08:51.999Z,0
2022-12-31T04:13:53.913Z,0
2022-12-31T04:18:49.263Z,0
2022-12-31T04:23:49.697Z,0
2022-12-31T04:28:48.507Z,0
2022-12-31T04:33:48.564Z,0
2022-12-31T04:38:45.895Z,0
2022-12-31T04:43:45.281Z,0
2022-12-31T04:48:45.713Z,0
2022-12-31T04:53:47.128Z,0
2022-12-31T04:58:43.471Z,0
2022-12-31T05:00:05.293Z,0
2022-12-31T05:05:04.307Z,0
2022-12-31T05:10:04.178Z,0
2022-12-31T05:15:01.448Z,0
2022-12-31T05:20:01.389Z,0
2022-12-31T05:25:01.821Z,0
2022-12-31T05:29:59.896Z,0
2022-12-31T05:35:00.350Z,0
2022-12-31T05:39:59.635Z,0
2022-12-31T05:45:00.578Z,0
2022-12-31T05:49:57.068Z,0
2022-12-31T05:54:57.148Z,0
2022-12-31T05:59:27.934Z,0
2022-12-31T06:04:29.690Z,0
2022-12-31T06:09:15.935Z,0
2022-12-31T06:14:16.064Z,0
2022-12-31T06:19:15.365Z,0
2022-12-31T06:24:13.570Z,0
2022-12-31T06:29:12.860Z,0
2022-12-31T06:34:12.705Z,0
2022-12-31T06:39:12.481Z,0
2022-12-31T06:44:11.958Z,0
2022-12-31T06:49:11.456Z,0
2022-12-31T06:54:11.816Z,0
2022-12-31T06:59:03.206Z,0
2022-12-31T07:04:04.057Z,0
2022-12-31T07:09:01.999Z,0
2022-12-31T07:14:01.128Z,0
2022-12-31T07:19:00.253Z,0
2022-12-31T07:23:59.371Z,0
2022-12-31T07:28:58.781Z,0
2022-12-31T07:33:58.109Z,0
2022-12-31T07:38:58.025Z,0
2022-12-31T07:43:55.853Z,0.01
2022-12-31T07:48:55.635Z,0.01
2022-12-31T07:53:55.267Z,0.01
2022-12-31T07:58:56.756Z,0.01
2022-12-31T08:03:52.748Z,0.02
2022-12-31T08:08:52.895Z,0.02
2022-12-31T08:14:44.818Z,0.02
2022-12-31T08:18:51.787Z,0.03
2022-12-31T08:23:50.131Z,0.03
2022-12-31T08:28:51.233Z,0.04
2022-12-31T08:33:50.385Z,0.04
2022-12-31T08:38:47.589Z,0.05
2022-12-31T08:43:47.087Z,0.06
2022-12-31T08:48:47.295Z,0.07
2022-12-31T08:53:46.778Z,0.07
2022-12-31T08:58:46.250Z,0.07
2022-12-31T09:03:46.406Z,0.08
2022-12-31T09:08:47.009Z,0.09
2022-12-31T09:13:45.315Z,0.09
2022-12-31T09:18:44.840Z,0.09
2022-12-31T09:23:43.907Z,0.1
2022-12-31T09:28:44.036Z,0.11
2022-12-31T09:33:41.549Z,0.12
2022-12-31T09:38:41.651Z,0.12
2022-12-31T09:43:40.624Z,0.12
2022-12-31T09:48:40.169Z,0.12
2022-12-31T09:53:39.354Z,0.13
2022-12-31T09:58:39.250Z,0.14
2022-12-31T10:00:00.630Z,0.14
2022-12-31T10:05:00.030Z,0.14
2022-12-31T10:10:01.136Z,0.15
2022-12-31T10:14:57.429Z,0.15
2022-12-31T10:19:58.099Z,0.15
2022-12-31T10:24:56.843Z,0.15
2022-12-31T10:29:57.109Z,0.16
2022-12-31T10:34:54.713Z,0.16
2022-12-31T10:39:54.523Z,0.16
2022-12-31T10:44:54.767Z,0.16
2022-12-31T10:49:56.289Z,0.16
2022-12-31T10:54:53.705Z,0.17
2022-12-31T10:59:14.273Z,0.18
2022-12-31T11:04:14.769Z,0.19
2022-12-31T11:09:13.788Z,0.2
2022-12-31T11:14:14.456Z,0.2
2022-12-31T11:19:13.801Z,0.2
2022-12-31T11:24:13.312Z,0.2
2022-12-31T11:29:14.334Z,0.2
2022-12-31T11:34:10.652Z,0.19
2022-12-31T11:39:10.823Z,0.2
2022-12-31T11:44:10.346Z,0.2
2022-12-31T11:49:09.893Z,0.2
2022-12-31T11:54:07.211Z,0.2
2022-12-31T11:58:33.743Z,0.19
2022-12-31T12:03:34.228Z,0.19
2022-12-31T12:08:34.982Z,0.19
2022-12-31T12:13:32.479Z,0.2
2022-12-31T12:18:32.802Z,0.18
2022-12-31T12:23:31.332Z,0.16
2022-12-31T12:28:32.116Z,0.16
2022-12-31T12:33:31.758Z,0.15
2022-12-31T12:38:29.407Z,0.15
2022-12-31T12:43:29.447Z,0.14
2022-12-31T12:48:29.566Z,0.13
2022-12-31T12:53:28.286Z,0.13
2022-12-31T12:58:28.704Z,0.13
2022-12-31T12:59:49.492Z,0.13
2022-12-31T13:04:49.247Z,0.12
2022-12-31T13:09:46.129Z,0.11
2022-12-31T13:14:45.978Z,0.11
2022-12-31T13:19:46.083Z,0.1
2022-12-31T13:24:45.976Z,0.1
2022-12-31T13:29:44.904Z,0.09
2022-12-31T13:34:44.660Z,0.09
2022-12-31T13:39:44.571Z,0.09
2022-12-31T13:44:44.088Z,0.08
2022-12-31T13:49:42.145Z,0.07
2022-12-31T13:54:42.212Z,0.07
2022-12-31T13:59:15.083Z,0.07
2022-12-31T14:04:14.804Z,0.06
2022-12-31T14:09:12.998Z,0.06
2022-12-31T14:14:13.612Z,0.05
2022-12-31T14:19:13.022Z,0.05
2022-12-31T14:24:12.499Z,0.04
2022-12-31T14:29:11.601Z,0.04
2022-12-31T14:34:12.114Z,0.03
2022-12-31T14:39:10.687Z,0.03
2022-12-31T14:44:12.152Z,0.03
2022-12-31T14:49:08.337Z,0.02
2022-12-31T14:54:08.047Z,0.02
2022-12-31T14:58:54.315Z,0.02
2022-12-31T15:03:54.028Z,0.01
2022-12-31T15:08:51.644Z,0.01
2022-12-31T15:13:51.943Z,0.01
2022-12-31T15:18:51.260Z,0
2022-12-31T15:23:52.265Z,0
2022-12-31T15:28:48.522Z,0
2022-12-31T15:33:48.734Z,0
2022-12-31T15:38:47.455Z,0
2022-12-31T15:43:47.568Z,0
2022-12-31T15:48:45.583Z,0
2022-12-31T15:53:44.998Z,0
2022-12-31T15:58:45.037Z,0
2022-12-31T16:03:42.929Z,0
2022-12-31T16:08:42.533Z,0
2022-12-31T16:13:43.006Z,0
2022-12-31T16:18:42.720Z,0
2022-12-31T16:23:45.307Z,0
2022-12-31T16:28:41.288Z,0
2022-12-31T16:33:41.155Z,0
2022-12-31T16:38:40.722Z,0
2022-12-31T16:43:42.612Z,0
2022-12-31T16:48:39.234Z,0
2022-12-31T16:53:38.279Z,0
2022-12-31T16:58:37.766Z,0
2022-12-31T16:59:59.585Z,0
2022-12-31T17:04:59.357Z,0
2022-12-31T17:09:59.113Z,0
2022-12-31T17:14:58.633Z,0
2022-12-31T17:19:59.173Z,0
2022-12-31T17:24:55.363Z,0
2022-12-31T17:29:55.745Z,0
2022-12-31T17:34:56.231Z,0
2022-12-31T17:39:54.731Z,0
2022-12-31T17:44:54.289Z,0
2022-12-31T17:49:54.542Z,0
2022-12-31T17:54:53.561Z,0
2022-12-31T17:58:53.521Z,0
2022-12-31T18:03:53.534Z,0
2022-12-31T18:08:53.819Z,0
2022-12-31T18:13:54.765Z,0
2022-12-31T18:18:52.635Z,0
2022-12-31T18:28:51.821Z,0
2022-12-31T18:33:51.291Z,0
2022-12-31T18:38:50.411Z,0
2022-12-31T18:43:50.353Z,0
2022-12-31T18:48:49.490Z,0
2022-12-31T18:53:50.778Z,0
2022-12-31T18:58:46.968Z,0
2022-12-31T19:03:46.796Z,0
2022-12-31T19:08:45.996Z,0
2022-12-31T19:13:45.212Z,0
2022-12-31T19:18:45.349Z,0
2022-12-31T19:23:44.533Z,0
2022-12-31T19:28:44.418Z,0
2022-12-31T19:33:41.896Z,0
2022-12-31T19:38:41.311Z,0
2022-12-31T19:43:40.956Z,0
2022-12-31T19:48:41.957Z,0
2022-12-31T19:53:38.155Z,0
2022-12-31T19:58:38.154Z,0
2022-12-31T19:59:59.852Z,0
2022-12-31T20:05:00.581Z,0
2022-12-31T20:09:56.925Z,0
2022-12-31T20:14:56.521Z,0
2022-12-31T20:19:56.646Z,0
2022-12-31T20:24:56.384Z,0
2022-12-31T20:29:55.467Z,0
2022-12-31T20:34:55.232Z,0
2022-12-31T20:39:55.110Z,0
2022-12-31T20:44:54.413Z,0
2022-12-31T20:50:14.973Z,0
2022-12-31T20:54:53.403Z,0
2022-12-31T20:59:39.516Z,0
2022-12-31T21:04:38.617Z,0
2022-12-31T21:09:37.450Z,0
2022-12-31T21:14:45.807Z,0
2022-12-31T21:19:36.728Z,0
2022-12-31T21:24:37.086Z,0
2022-12-31T21:30:20.348Z,0
2022-12-31T21:34:35.697Z,0
2022-12-31T21:39:34.670Z,0
2022-12-31T21:44:35.585Z,0
2022-12-31T21:49:32.034Z,0
2022-12-31T21:54:32.142Z,0
2022-12-31T21:58:59.294Z,0
2022-12-31T22:03:59.443Z,0
2022-12-31T22:08:56.628Z,0
2022-12-31T22:13:56.517Z,0
2022-12-31T22:18:56.581Z,0
2022-12-31T22:23:57.356Z,0
2022-12-31T22:28:55.972Z,0
2022-12-31T22:33:55.312Z,0
2022-12-31T22:38:55.449Z,0
2022-12-31T22:44:06.023Z,0
2022-12-31T22:48:52.888Z,0
2022-12-31T22:53:52.942Z,0
2022-12-31T22:58:38.928Z,0
2022-12-31T23:03:38.841Z,0
2022-12-31T23:08:37.710Z,0
2022-12-31T23:13:37.633Z,0
2022-12-31T23:18:37.252Z,0
2022-12-31T23:23:37.032Z,0
2022-12-31T23:28:38.113Z,0
2022-12-31T23:33:34.549Z,0
2022-12-31T23:38:34.810Z,0
2022-12-31T23:43:33.688Z,0
2022-12-31T23:48:34.005Z,0
2022-12-31T23:53:30.940Z,0
2022-12-31T23:58:27.892Z,0
